createdAt,value
2023-01-22T00:00:11.169Z,10.33
2023-01-22T00:05:05.698Z,10.40
2023-01-22T00:10:00.177Z,13.77
2023-01-22T00:14:54.952Z,9.73
2023-01-22T00:19:48.286Z,10.20
2023-01-22T00:24:41.640Z,10.40
2023-01-22T00:29:34.938Z,10.17
2023-01-22T00:34:29.897Z,10.60
2023-01-22T00:39:23.224Z,11.00
2023-01-22T00:44:16.639Z,10.20
2023-01-22T00:49:10.081Z,11.57
2023-01-22T00:54:05.091Z,9.93
2023-01-22T00:58:58.697Z,12.83
2023-01-22T01:03:52.080Z,10.77
2023-01-22T01:08:45.777Z,11.37
2023-01-22T01:13:43.113Z,11.27
2023-01-22T01:18:38.159Z,10.00
2023-01-22T01:23:31.922Z,10.37
2023-01-22T01:28:25.476Z,10.50
2023-01-22T01:33:20.201Z,10.90
2023-01-22T01:38:13.687Z,11.60
2023-01-22T01:49:49.975Z,12.57
2023-01-22T01:54:49.096Z,10.70
2023-01-22T01:59:44.540Z,10.80
2023-01-22T02:04:39.373Z,11.20
2023-01-22T02:09:33.033Z,12.30
2023-01-22T02:14:33.320Z,13.10
2023-01-22T02:19:26.714Z,11.13
2023-01-22T02:24:21.355Z,12.43
2023-01-22T02:29:16.773Z,11.07
2023-01-22T02:34:11.328Z,13.17
2023-01-22T02:39:05.621Z,11.93
2023-01-22T02:44:00.281Z,13.33
2023-01-22T02:48:54.060Z,12.80
2023-01-22T02:53:47.400Z,13.10
2023-01-22T02:58:40.855Z,12.77
2023-01-22T03:03:35.576Z,13.83
2023-01-22T03:08:28.842Z,13.33
2023-01-22T03:13:42.769Z,13.60
2023-01-22T03:18:58.229Z,14.13
2023-01-22T03:23:54.726Z,14.37
2023-01-22T03:28:55.191Z,12.73
2023-01-22T03:33:49.859Z,13.87
2023-01-22T03:38:45.122Z,12.47
2023-01-22T03:43:38.467Z,13.03
2023-01-22T03:48:32.054Z,13.43
2023-01-22T03:53:26.672Z,13.10
2023-01-22T03:58:20.028Z,12.97
2023-01-22T04:03:13.304Z,13.23
2023-01-22T04:08:06.865Z,12.73
2023-01-22T04:13:01.532Z,12.73
2023-01-22T04:17:54.809Z,14.43
2023-01-22T04:22:49.004Z,11.17
2023-01-22T04:27:42.315Z,11.87
2023-01-22T04:32:36.970Z,11.70
2023-01-22T04:37:30.219Z,11.47
2023-01-22T04:42:23.525Z,13.33
2023-01-22T04:47:16.869Z,10.27
2023-01-22T04:52:11.972Z,10.33
2023-01-22T04:57:05.702Z,10.07
2023-01-22T05:01:59.243Z,10.37
2023-01-22T05:06:52.658Z,9.83
2023-01-22T05:11:47.379Z,9.93
2023-01-22T05:16:40.746Z,11.10
2023-01-22T05:21:34.199Z,10.40
2023-01-22T05:26:27.563Z,11.87
2023-01-22T05:31:23.214Z,11.87
2023-01-22T05:36:16.637Z,11.77
2023-01-22T05:41:10.151Z,12.23
2023-01-22T05:46:03.936Z,13.03
2023-01-22T05:50:58.695Z,12.93
2023-01-22T05:55:52.035Z,14.73
2023-01-22T06:00:45.338Z,15.30
2023-01-22T06:05:38.838Z,13.73
2023-01-22T06:10:33.566Z,13.77
2023-01-22T06:15:27.032Z,17.47
2023-01-22T06:20:20.494Z,15.30
2023-01-22T06:25:13.768Z,16.57
2023-01-22T06:30:10.938Z,15.87
2023-01-22T06:35:04.431Z,20.10
2023-01-22T06:39:57.840Z,18.63
2023-01-22T06:44:51.704Z,19.23
2023-01-22T06:49:46.552Z,16.97
2023-01-22T06:54:39.910Z,16.67
2023-01-22T06:59:33.247Z,16.97
2023-01-22T07:12:14.588Z,15.90
2023-01-22T07:23:42.123Z,18.90
2023-01-22T07:28:35.490Z,18.37
2023-01-22T07:33:28.894Z,16.30
2023-01-22T07:38:22.307Z,16.97
2023-01-22T07:43:17.903Z,19.60
2023-01-22T07:48:11.725Z,16.00
2023-01-22T07:53:48.630Z,15.23
2023-01-22T07:58:43.382Z,19.23
2023-01-22T09:02:53.073Z,14.10
2023-01-22T09:07:46.449Z,12.70
2023-01-22T09:12:40.453Z,12.53
2023-01-22T09:17:34.061Z,12.30
2023-01-22T09:29:05.961Z,11.47
2023-01-22T09:34:00.667Z,11.10
2023-01-22T09:38:54.051Z,11.20
2023-01-22T09:43:54.463Z,11.80
2023-01-22T09:48:58.442Z,11.33
2023-01-22T09:53:59.612Z,11.57
2023-01-22T09:58:56.232Z,9.60
2023-01-22T10:03:58.228Z,10.00
2023-01-22T10:09:03.004Z,10.07
2023-01-22T10:14:00.762Z,10.90
2023-01-22T10:19:01.755Z,14.10
2023-01-22T10:23:58.166Z,12.77
2023-01-22T10:28:56.815Z,13.27
2023-01-22T10:33:59.901Z,11.60
2023-01-22T10:39:11.115Z,12.83
2023-01-22T10:44:27.453Z,11.70
2023-01-22T10:49:26.258Z,11.63
2023-01-22T10:54:30.884Z,10.87
2023-01-22T10:59:29.697Z,11.30
2023-01-22T11:04:28.732Z,9.03
2023-01-22T11:09:28.828Z,11.30
2023-01-22T11:14:30.862Z,12.60
2023-01-22T11:19:37.592Z,9.90
2023-01-22T11:24:46.845Z,12.43
2023-01-22T11:30:03.634Z,11.13
2023-01-22T11:35:19.671Z,10.03
2023-01-22T11:40:27.173Z,9.47
2023-01-22T12:06:03.359Z,10.10
2023-01-22T12:11:17.885Z,9.60
2023-01-22T16:04:45.386Z,10.77
2023-01-22T16:09:38.881Z,11.97
2023-01-22T16:14:32.258Z,13.50
2023-01-22T16:19:25.728Z,8.77
2023-01-22T16:24:20.665Z,9.63
2023-01-22T16:29:14.098Z,9.23
2023-01-22T16:34:13.904Z,9.53
2023-01-22T16:39:07.891Z,10.00
2023-01-22T16:44:08.059Z,9.07
2023-01-22T17:15:10.428Z,10.27
2023-01-22T18:25:23.193Z,11.77
2023-01-22T18:30:18.344Z,12.03
2023-01-22T18:35:12.098Z,14.00
2023-01-22T19:07:50.962Z,11.57
2023-01-22T21:49:24.635Z,13.27
2023-01-22T21:54:35.650Z,14.07
2023-01-22T21:59:52.688Z,15.03
2023-01-22T22:04:47.797Z,14.67
2023-01-22T22:48:54.210Z,15.43
2023-01-22T22:53:48.732Z,17.13
2023-01-22T22:58:42.279Z,17.33
2023-01-22T23:03:37.540Z,19.30
2023-01-22T23:08:32.319Z,16.87
2023-01-22T23:13:25.612Z,16.07
2023-01-22T23:18:20.293Z,16.10
2023-01-22T23:23:13.571Z,14.43
2023-01-22T23:28:08.450Z,16.07
2023-01-22T23:33:01.725Z,16.83
